Time;durP1;ratioP1;P1;durP2;ratioP2;P2;SDS_P1;SDS_P2;PMS_P1;PMS_P2;Temp;Humidity;BMP_temperature;BMP_pressure;BME280_temperature;BME280_humidity;BME280_pressure;Samples;Min_cycle;Max_cycle;Signal;HPM_P1;HPM_P2
2022/04/21 00:00:59;;;;;;;22.10;13.80;;;6.70;99.90;;;;;;8220344;28;20214;-71
2022/04/21 00:05:00;;;;;;;19.53;13.77;;;6.70;99.90;;;;;;8236971;28;20311;-70
2022/04/21 00:09:01;;;;;;;26.47;15.63;;;6.70;99.90;;;;;;8222306;28;20275;-71
2022/04/21 00:13:02;;;;;;;22.90;15.97;;;6.70;99.90;;;;;;8238225;28;20284;-71
2022/04/21 00:17:03;;;;;;;23.50;15.17;;;6.60;99.90;;;;;;8236193;28;20283;-71
2022/04/21 00:21:05;;;;;;;27.47;15.63;;;6.60;99.90;;;;;;8227719;28;20195;-71
2022/04/21 00:25:06;;;;;;;24.90;15.47;;;6.50;99.90;;;;;;8222578;28;20213;-71
2022/04/21 00:29:07;;;;;;;27.60;17.13;;;6.50;99.90;;;;;;8238009;28;20204;-71
2022/04/21 00:33:08;;;;;;;25.73;15.80;;;6.50;99.90;;;;;;8243393;28;20223;-71
2022/04/21 00:37:10;;;;;;;26.40;15.20;;;6.50;99.90;;;;;;8236935;28;20235;-71
2022/04/21 00:41:11;;;;;;;21.73;14.43;;;6.50;99.90;;;;;;8235812;28;20653;-72
2022/04/21 00:45:13;;;;;;;25.37;14.63;;;6.50;99.90;;;;;;8223328;28;20236;-71
2022/04/21 00:49:15;;;;;;;20.73;13.60;;;6.50;99.90;;;;;;8219618;28;20191;-71
2022/04/21 00:53:15;;;;;;;20.27;14.33;;;6.50;99.90;;;;;;8236901;28;20193;-71
2022/04/21 00:57:16;;;;;;;20.17;13.37;;;6.60;99.90;;;;;;8221454;28;20204;-71
2022/04/21 01:05:37;;;;;;;20.30;13.23;;;6.60;99.90;;;;;;8222882;28;20235;-71
2022/04/21 01:09:39;;;;;;;20.03;12.70;;;6.60;99.90;;;;;;8225180;28;20188;-72
2022/04/21 01:13:40;;;;;;;24.33;14.70;;;6.60;99.90;;;;;;8220814;28;20224;-72
2022/04/21 01:17:41;;;;;;;24.77;14.83;;;6.70;99.90;;;;;;8219424;28;20208;-71
2022/04/21 01:21:42;;;;;;;21.63;13.70;;;6.70;99.90;;;;;;8219658;28;20228;-71
2022/04/21 01:25:43;;;;;;;22.77;13.97;;;6.80;99.90;;;;;;8232915;28;20219;-72
2022/04/21 01:29:43;;;;;;;22.17;14.67;;;6.80;99.90;;;;;;8234334;28;20235;-71
2022/04/21 01:33:44;;;;;;;23.07;13.97;;;6.80;99.90;;;;;;8234686;28;20298;-71
2022/04/21 01:42:05;;;;;;;30.03;14.67;;;6.80;99.90;;;;;;8219477;28;20211;-70
2022/04/21 01:46:05;;;;;;;32.27;15.77;;;6.80;99.90;;;;;;8217505;28;20220;-71
2022/04/21 01:50:07;;;;;;;19.87;12.70;;;6.70;99.90;;;;;;8232508;28;20193;-71
2022/04/21 01:54:08;;;;;;;23.13;13.80;;;6.70;99.90;;;;;;8221303;28;20196;-72
2022/04/21 01:58:09;;;;;;;23.20;13.87;;;6.70;99.90;;;;;;8232480;28;20192;-71
2022/04/21 02:02:09;;;;;;;31.83;14.70;;;6.80;99.90;;;;;;8216550;28;20198;-72
2022/04/21 02:06:13;;;;;;;26.27;14.17;;;6.70;99.90;;;;;;8232595;28;20213;-71
2022/04/21 02:10:17;;;;;;;26.80;14.47;;;6.70;99.90;;;;;;8233864;28;20280;-71
2022/04/21 02:14:18;;;;;;;20.70;13.27;;;6.70;99.90;;;;;;8224709;28;20203;-72
2022/04/21 02:18:19;;;;;;;22.13;14.03;;;6.70;99.90;;;;;;8231964;28;20201;-72
2022/04/21 02:22:20;;;;;;;22.30;13.23;;;6.70;99.90;;;;;;8231198;28;20749;-72
2022/04/21 02:26:21;;;;;;;27.50;15.93;;;6.70;99.90;;;;;;8231491;28;20375;-71
2022/04/21 02:30:22;;;;;;;25.87;15.53;;;6.70;99.90;;;;;;8214062;28;20200;-72
2022/04/21 02:34:22;;;;;;;24.43;15.47;;;6.70;99.90;;;;;;8232002;28;20242;-72
2022/04/21 02:38:23;;;;;;;22.63;13.90;;;6.70;99.90;;;;;;8231334;28;20219;-72
2022/04/21 02:42:24;;;;;;;34.30;16.53;;;6.70;99.90;;;;;;8237494;28;20202;-72
2022/04/21 02:46:28;;;;;;;24.43;14.43;;;6.70;99.90;;;;;;8216614;28;20216;-72
2022/04/21 02:50:29;;;;;;;22.80;13.37;;;6.70;99.90;;;;;;8216142;28;20220;-73
2022/04/21 02:58:49;;;;;;;30.43;15.13;;;6.70;99.90;;;;;;8212380;28;20236;-72
2022/04/21 03:02:50;;;;;;;28.03;15.50;;;6.70;99.90;;;;;;8230891;28;20227;-71
2022/04/21 03:06:51;;;;;;;22.90;12.90;;;6.70;99.90;;;;;;8215488;28;20220;-71
2022/04/21 03:10:52;;;;;;;23.37;14.43;;;6.70;99.90;;;;;;8232447;28;20192;-72
2022/04/21 03:14:55;;;;;;;21.00;12.97;;;6.70;99.90;;;;;;8217636;28;20192;-72
2022/04/21 03:18:56;;;;;;;20.97;12.63;;;6.70;99.90;;;;;;8219096;28;20215;-72
2022/04/21 03:27:16;;;;;;;22.83;13.17;;;6.80;99.90;;;;;;8213756;28;20389;-71
2022/04/21 03:31:17;;;;;;;25.43;14.30;;;6.80;99.90;;;;;;8228460;28;20276;-72
2022/04/21 03:35:18;;;;;;;18.83;11.57;;;6.90;99.90;;;;;;8230833;28;20193;-72
2022/04/21 03:39:21;;;;;;;19.97;11.43;;;6.90;99.90;;;;;;8218555;28;20318;-72
2022/04/21 03:43:21;;;;;;;18.30;11.57;;;6.90;99.90;;;;;;8217265;28;20266;-72
2022/04/21 03:47:22;;;;;;;20.23;11.63;;;6.90;99.90;;;;;;8226678;28;20219;-72
2022/04/21 03:51:25;;;;;;;17.67;11.17;;;6.90;99.90;;;;;;8217130;28;20189;-72
2022/04/21 03:55:26;;;;;;;22.00;12.20;;;6.90;99.90;;;;;;8216962;28;20682;-72
2022/04/21 03:59:27;;;;;;;19.70;12.00;;;7.00;99.90;;;;;;8228849;28;20192;-71
2022/04/21 04:03:28;;;;;;;22.23;13.03;;;7.00;99.90;;;;;;8216130;28;20204;-72
2022/04/21 04:11:49;;;;;;;20.00;11.83;;;7.00;99.90;;;;;;8221941;28;20244;-72
2022/04/21 04:15:51;;;;;;;18.00;11.53;;;7.00;99.90;;;;;;8218606;28;20328;-72
2022/04/21 04:19:53;;;;;;;21.50;12.37;;;7.10;99.90;;;;;;8223997;28;20193;-72
2022/04/21 04:23:54;;;;;;;21.40;12.43;;;7.10;99.90;;;;;;8223145;28;20196;-72
2022/04/21 04:27:54;;;;;;;20.33;11.20;;;7.10;99.90;;;;;;8237157;28;20227;-72
2022/04/21 04:31:57;;;;;;;19.37;11.63;;;7.10;99.90;;;;;;8222753;28;20196;-72
2022/04/21 04:35:57;;;;;;;20.37;10.93;;;7.10;99.90;;;;;;8237499;28;20291;-73
2022/04/21 04:39:59;;;;;;;20.80;12.73;;;7.10;99.90;;;;;;8221828;28;20219;-73
2022/04/21 04:44:00;;;;;;;20.93;12.57;;;7.20;99.90;;;;;;8234773;28;20197;-72
2022/04/21 04:48:01;;;;;;;17.73;11.00;;;7.20;99.90;;;;;;8235720;28;20192;-71
2022/04/21 04:52:02;;;;;;;19.33;11.13;;;7.30;99.90;;;;;;8238218;28;20199;-72
2022/04/21 04:56:03;;;;;;;22.00;11.93;;;7.30;99.90;;;;;;8222550;28;20235;-72
2022/04/21 05:00:06;;;;;;;20.10;11.90;;;7.40;99.90;;;;;;8220271;28;20189;-72
2022/04/21 05:04:15;;;;;;;20.50;12.90;;;7.50;99.90;;;;;;8235728;28;20192;-72
2022/04/21 05:08:16;;;;;;;23.50;13.80;;;7.60;99.90;;;;;;8235178;28;20803;-72
2022/04/21 05:12:18;;;;;;;28.27;14.13;;;7.70;99.90;;;;;;8236150;28;20189;-72
2022/04/21 05:16:19;;;;;;;17.03;11.10;;;7.80;99.90;;;;;;8237001;28;20193;-73
2022/04/21 05:20:20;;;;;;;27.23;14.93;;;8.00;99.90;;;;;;8235716;28;20251;-71
2022/04/21 05:24:22;;;;;;;26.50;15.47;;;8.10;99.90;;;;;;8235618;28;20275;-73
2022/04/21 05:28:24;;;;;;;18.20;10.47;;;8.20;99.90;;;;;;8235545;28;20201;-72
2022/04/21 05:32:28;;;;;;;22.03;12.90;;;8.40;99.90;;;;;;8218161;28;20184;-72
2022/04/21 05:36:29;;;;;;;20.67;11.73;;;8.60;99.90;;;;;;8233936;28;20243;-72
2022/04/21 05:40:30;;;;;;;18.83;12.60;;;8.90;99.90;;;;;;8221555;28;20302;-72
2022/04/21 05:44:32;;;;;;;19.47;12.40;;;9.10;99.90;;;;;;8219817;28;20320;-72
2022/04/21 05:48:34;;;;;;;20.80;13.50;;;9.30;99.90;;;;;;8217009;28;20199;-72
2022/04/21 05:52:38;;;;;;;20.20;13.30;;;9.50;99.90;;;;;;8216447;28;20204;-72
2022/04/21 05:56:39;;;;;;;24.53;14.70;;;9.70;99.90;;;;;;8230391;28;20217;-72
2022/04/21 06:00:40;;;;;;;32.53;22.37;;;9.80;99.90;;;;;;8231956;28;20222;-72
2022/04/21 06:04:40;;;;;;;37.13;27.43;;;9.90;99.90;;;;;;8231201;28;20246;-72
2022/04/21 06:08:41;;;;;;;30.47;20.83;;;10.00;99.90;;;;;;8231242;28;20278;-72
2022/04/21 06:12:42;;;;;;;27.90;16.97;;;10.00;99.90;;;;;;8234062;28;20232;-72
2022/04/21 06:16:43;;;;;;;26.60;18.03;;;10.00;99.90;;;;;;8216331;28;20202;-72
2022/04/21 06:20:44;;;;;;;25.50;17.77;;;10.10;99.90;;;;;;8232389;28;20190;-72
2022/04/21 06:24:44;;;;;;;32.47;21.73;;;10.10;99.90;;;;;;8214200;28;20353;-71
2022/04/21 06:28:45;;;;;;;29.83;20.60;;;10.00;99.90;;;;;;8231059;28;20214;-71
2022/04/21 06:32:46;;;;;;;25.27;17.57;;;10.00;99.90;;;;;;8216319;28;20189;-71
2022/04/21 06:36:47;;;;;;;20.97;14.87;;;9.90;99.90;;;;;;8215134;28;20244;-71
2022/04/21 06:40:48;;;;;;;23.53;16.20;;;9.80;99.90;;;;;;8215334;28;20218;-70
2022/04/21 06:49:08;;;;;;;26.03;16.90;;;9.90;99.90;;;;;;8214056;28;20263;-70
2022/04/21 06:53:10;;;;;;;23.17;16.73;;;10.20;99.90;;;;;;8216837;28;20183;-70
2022/04/21 06:57:11;;;;;;;24.87;18.47;;;10.40;99.90;;;;;;8222473;28;20191;-70
2022/04/21 07:01:11;;;;;;;26.17;18.20;;;10.70;99.90;;;;;;8214346;28;20196;-70
2022/04/21 07:05:13;;;;;;;26.37;17.80;;;11.00;99.90;;;;;;8231803;28;20211;-70
2022/04/21 07:09:15;;;;;;;21.33;15.97;;;11.20;99.90;;;;;;8217258;28;20184;-70
2022/04/21 07:13:16;;;;;;;20.60;15.60;;;11.30;1.00;;;;;;8237872;28;20184;-70
2022/04/21 07:17:18;;;;;;;21.20;15.13;;;11.50;99.90;;;;;;8215929;28;20199;-69
2022/04/21 07:21:19;;;;;;;20.87;16.50;;;11.60;8.40;;;;;;8215960;28;20195;-70
2022/04/21 07:25:20;;;;;;;21.50;15.27;;;11.70;1.00;;;;;;8230897;28;20217;-70
2022/04/21 07:29:22;;;;;;;16.63;14.33;;;11.80;39.10;;;;;;8231957;28;20227;-69
2022/04/21 07:33:22;;;;;;;17.97;12.50;;;12.20;83.10;;;;;;8215331;28;20276;-70
2022/04/21 07:37:23;;;;;;;16.43;13.23;;;12.70;99.90;;;;;;8211826;28;20188;-70
2022/04/21 07:41:24;;;;;;;29.83;16.63;;;12.90;1.00;;;;;;8217417;28;20219;-69
2022/04/21 07:45:25;;;;;;;19.97;14.20;;;13.10;54.50;;;;;;8234436;28;20317;-69
2022/04/21 07:53:45;;;;;;;24.27;14.90;;;12.60;99.90;;;;;;8219203;28;20192;-70
2022/04/21 07:57:47;;;;;;;21.00;14.00;;;12.40;95.70;;;;;;8220848;28;20188;-68
2022/04/21 08:01:48;;;;;;;18.73;12.87;;;12.20;36.20;;;;;;8221748;28;20223;-69
2022/04/21 08:05:48;;;;;;;19.77;14.73;;;12.20;99.90;;;;;;8220308;28;20220;-69
2022/04/21 08:09:49;;;;;;;20.87;13.97;;;12.30;1.00;;;;;;8219863;28;20188;-68
2022/04/21 08:13:50;;;;;;;18.27;12.33;;;12.40;1.00;;;;;;8235177;28;20188;-68
2022/04/21 08:17:52;;;;;;;19.63;14.43;;;12.50;12.50;;;;;;8241416;28;20378;-70
2022/04/21 08:21:53;;;;;;;16.50;12.40;;;12.30;1.00;;;;;;8221399;28;20189;-68
2022/04/21 08:34:37;;;;;;;21.70;14.77;;;11.70;1.00;;;;;;8220579;28;20227;-69
2022/04/21 08:38:37;;;;;;;21.60;16.50;;;11.60;1.00;;;;;;8218752;28;20413;-69
2022/04/21 08:42:40;;;;;;;21.07;15.93;;;11.60;3.80;;;;;;8234865;28;20188;-69
2022/04/21 08:46:43;;;;;;;16.07;12.57;;;11.50;1.00;;;;;;8219796;28;20261;-70
2022/04/21 08:50:44;;;;;;;16.43;12.40;;;11.50;99.90;;;;;;8236310;28;20195;-69
2022/04/21 08:54:46;;;;;;;21.07;14.93;;;11.50;99.90;;;;;;8234538;28;20189;-69
2022/04/21 08:58:48;;;;;;;18.20;13.77;;;11.50;1.00;;;;;;8220015;28;20250;-69
2022/04/21 09:02:49;;;;;;;16.10;12.50;;;11.20;1.00;;;;;;8234684;28;20196;-69
2022/04/21 09:06:50;;;;;;;18.57;13.37;;;11.00;99.90;;;;;;8219445;28;20219;-69
2022/04/21 09:11:08;;;;;;;19.03;13.63;;;10.80;99.90;;;;;;8222167;28;20195;-70
2022/04/21 09:15:12;;;;;;;21.60;15.27;;;10.70;99.90;;;;;;8218649;28;20215;-70
2022/04/21 09:19:14;;;;;;;15.73;12.47;;;10.60;99.90;;;;;;8239383;28;20203;-70
2022/04/21 09:23:15;;;;;;;16.93;13.30;;;10.60;99.90;;;;;;8231897;28;20198;-71
2022/04/21 09:27:16;;;;;;;17.13;13.70;;;10.70;99.90;;;;;;8219674;28;20220;-70
2022/04/21 09:31:16;;;;;;;20.73;14.67;;;10.70;1.00;;;;;;8234185;28;20191;-69
2022/04/21 09:35:18;;;;;;;22.20;16.57;;;10.80;99.90;;;;;;8233011;28;20254;-69
2022/04/21 09:39:19;;;;;;;49.60;31.63;;;10.90;99.90;;;;;;8219019;28;20256;-71
2022/04/21 09:43:29;;;;;;;29.20;20.73;;;10.90;1.00;;;;;;8234197;28;20225;-70
2022/04/21 09:47:30;;;;;;;17.53;13.70;;;10.90;99.90;;;;;;8233620;28;20217;-70
2022/04/21 09:51:33;;;;;;;18.77;13.77;;;10.80;1.00;;;;;;8233805;28;20195;-69
2022/04/21 09:55:34;;;;;;;20.07;16.10;;;10.60;1.00;;;;;;8217639;28;20278;-70
2022/04/21 09:59:36;;;;;;;15.97;13.03;;;10.60;91.50;;;;;;8216364;28;20191;-70
2022/04/21 10:03:41;;;;;;;20.07;14.53;;;10.70;99.90;;;;;;8234216;28;20193;-70
2022/04/21 10:07:44;;;;;;;14.90;11.87;;;10.80;99.90;;;;;;8215521;28;20219;-71
2022/04/21 10:11:45;;;;;;;23.40;17.67;;;11.00;43.70;;;;;;8233158;28;20656;-70
2022/04/21 10:15:45;;;;;;;17.03;13.07;;;11.00;1.00;;;;;;8215281;28;20614;-70
2022/04/21 10:19:51;;;;;;;21.77;15.23;;;11.00;9.80;;;;;;8217577;28;20200;-70
2022/04/21 10:23:52;;;;;;;18.60;14.63;;;11.10;99.90;;;;;;8216571;28;20207;-70
2022/04/21 10:27:53;;;;;;;19.37;13.00;;;11.00;1.00;;;;;;8213714;28;20223;-70
2022/04/21 10:31:59;;;;;;;23.70;15.53;;;11.00;99.90;;;;;;8238074;28;20226;-69
2022/04/21 10:36:00;;;;;;;17.77;13.33;;;10.90;1.00;;;;;;8230768;28;20199;-70
2022/04/21 10:40:14;;;;;;;16.33;12.43;;;10.80;1.00;;;;;;8217240;28;20214;-70
2022/04/21 10:44:16;;;;;;;23.07;16.77;;;10.90;99.90;;;;;;8236968;28;20245;-70
2022/04/21 10:48:17;;;;;;;22.90;15.10;;;11.10;2.90;;;;;;8214964;28;20188;-70
2022/04/21 11:01:07;;;;;;;20.77;15.50;;;11.20;99.90;;;;;;8217998;28;20202;-70
2022/04/21 11:05:41;;;;;;;20.40;14.17;;;11.20;99.90;;;;;;8211851;28;20216;-70
2022/04/21 11:09:45;;;;;;;16.50;11.83;;;11.20;35.70;;;;;;8227208;28;20272;-71
2022/04/21 11:13:53;;;;;;;17.13;12.57;;;11.60;1.00;;;;;;8214379;28;20185;-70
2022/04/21 11:18:10;;;;;;;21.17;13.60;;;11.90;99.90;;;;;;8218774;28;20188;-69
2022/04/21 11:22:14;;;;;;;18.30;14.80;;;12.10;1.00;;;;;;8224503;28;20188;-69
2022/04/21 11:26:15;;;;;;;20.97;15.13;;;12.00;1.00;;;;;;8237868;28;20246;-69
2022/04/21 11:30:16;;;;;;;21.03;15.43;;;11.90;1.00;;;;;;8239540;28;20231;-67
2022/04/21 11:34:24;;;;;;;20.40;14.60;;;11.90;1.00;;;;;;8236036;28;20195;-69
2022/04/21 11:38:27;;;;;;;14.37;10.93;;;12.10;1.00;;;;;;8220612;28;20250;-69
2022/04/21 11:42:28;;;;;;;14.20;11.80;;;12.80;1.00;;;;;;8224325;28;20180;-68
2022/04/21 11:46:29;;;;;;;16.93;12.27;;;13.30;91.80;;;;;;8218699;28;20212;-68
2022/04/21 11:50:30;;;;;;;20.57;14.10;;;13.40;99.90;;;;;;8248557;28;20191;-68
2022/04/21 11:54:31;;;;;;;19.87;14.13;;;13.10;99.90;;;;;;8241224;28;20203;-68
2022/04/21 11:58:37;;;;;;;19.57;14.10;;;12.80;99.90;;;;;;8235638;28;20184;-67
2022/04/21 12:06:58;;;;;;;36.10;21.50;;;12.20;99.90;;;;;;8221529;28;20220;-72
2022/04/21 12:10:59;;;;;;;30.97;19.07;;;12.20;1.00;;;;;;8236507;28;20185;-69
2022/04/21 12:15:00;;;;;;;21.97;15.27;;;12.40;1.00;;;;;;8226656;28;20223;-68
2022/04/21 12:38:57;;;;;;;41.30;21.73;;;13.50;99.90;;;;;;8217881;28;20224;-70
2022/04/21 12:42:58;;;;;;;22.60;14.27;;;13.00;1.00;;;;;;8220634;28;20190;-69
2022/04/21 13:11:44;;;;;;;21.87;13.10;;;11.90;99.90;;;;;;8220654;28;20187;-69
2022/04/21 13:15:45;;;;;;;13.50;10.60;;;12.30;99.90;;;;;;8221759;28;20185;-68
2022/04/21 13:19:46;;;;;;;18.37;13.93;;;12.70;99.90;;;;;;8218262;28;20184;-70
2022/04/21 13:23:47;;;;;;;17.03;11.63;;;12.80;78.70;;;;;;8231628;28;20188;-69
2022/04/21 13:27:47;;;;;;;10.93;9.50;;;12.90;73.60;;;;;;8217238;28;20287;-69
2022/04/21 13:36:09;;;;;;;13.80;10.57;;;13.20;99.90;;;;;;8217986;28;20204;-69
2022/04/21 13:40:10;;;;;;;10.47;7.90;;;13.80;1.00;;;;;;8220239;28;20212;-69
2022/04/21 13:44:11;;;;;;;11.43;8.67;;;14.40;99.90;;;;;;8236912;28;20197;-70
2022/04/21 13:48:12;;;;;;;12.93;9.17;;;14.80;99.90;;;;;;8235303;28;20223;-71
2022/04/21 13:52:13;;;;;;;10.97;8.27;;;15.20;92.10;;;;;;8217453;28;20207;-69
2022/04/21 13:56:13;;;;;;;10.27;7.97;;;15.40;1.00;;;;;;8221388;28;20294;-69
2022/04/21 14:00:14;;;;;;;8.43;7.17;;;15.60;1.00;;;;;;8219107;28;20207;-70
2022/04/21 14:04:16;;;;;;;9.30;7.47;;;15.60;1.00;;;;;;8218346;28;21043;-73
2022/04/21 14:08:18;;;;;;;10.23;6.77;;;15.30;1.00;;;;;;8233494;28;20248;-69
2022/04/21 14:12:19;;;;;;;10.00;7.40;;;15.00;1.00;;;;;;8220530;28;20180;-70
2022/04/21 14:16:20;;;;;;;7.87;6.23;;;14.80;1.00;;;;;;8233023;28;20195;-69
2022/04/21 14:20:21;;;;;;;10.07;8.37;;;14.70;1.00;;;;;;8225649;28;20414;-69
2022/04/21 14:24:22;;;;;;;9.07;7.77;;;14.70;1.00;;;;;;8219322;28;20215;-69
2022/04/21 14:28:25;;;;;;;9.50;7.17;;;14.60;1.00;;;;;;8233421;28;20216;-68
2022/04/21 14:32:25;;;;;;;11.40;9.20;;;14.30;11.60;;;;;;8236251;28;20189;-69
2022/04/21 14:36:27;;;;;;;14.00;10.53;;;14.10;99.90;;;;;;8247666;28;20188;-69
2022/04/21 14:44:47;;;;;;;15.60;10.10;;;13.50;1.00;;;;;;8218491;28;20207;-69
2022/04/21 14:48:47;;;;;;;13.23;10.47;;;13.30;1.00;;;;;;8234221;28;20267;-68
2022/04/21 14:52:48;;;;;;;12.30;9.90;;;13.20;1.00;;;;;;8222470;28;20218;-69
2022/04/21 14:56:49;;;;;;;18.03;11.87;;;13.20;1.00;;;;;;8220156;28;20196;-69
2022/04/21 15:00:50;;;;;;;14.13;10.60;;;13.20;1.00;;;;;;8235674;28;20180;-67
2022/04/21 15:04:51;;;;;;;14.40;11.07;;;13.00;1.00;;;;;;8215972;28;20232;-69
2022/04/21 15:08:52;;;;;;;25.63;15.70;;;13.10;1.00;;;;;;8234877;28;20191;-68
2022/04/21 15:12:53;;;;;;;35.73;23.97;;;13.00;1.00;;;;;;8218782;28;20549;-68
2022/04/21 15:16:55;;;;;;;22.53;15.33;;;12.90;1.00;;;;;;8224129;28;20363;-69
2022/04/21 15:20:57;;;;;;;37.30;23.20;;;12.80;1.00;;;;;;8230431;28;20196;-68
2022/04/21 15:24:58;;;;;;;18.33;14.33;;;12.70;51.10;;;;;;8215721;28;20247;-67
2022/04/21 15:28:59;;;;;;;23.67;14.67;;;12.60;99.90;;;;;;8231321;28;20200;-68
2022/04/21 15:32:59;;;;;;;30.67;16.43;;;12.50;99.90;;;;;;8215154;28;20194;-67
2022/04/21 15:37:00;;;;;;;31.50;18.37;;;12.40;99.90;;;;;;8228638;28;20302;-69
2022/04/21 15:41:01;;;;;;;25.10;17.73;;;12.40;99.90;;;;;;8217075;28;20212;-67
2022/04/21 15:45:02;;;;;;;27.47;18.20;;;12.30;99.90;;;;;;8231169;28;20220;-68
2022/04/21 15:49:02;;;;;;;51.57;28.40;;;12.20;99.90;;;;;;8215191;28;20275;-67
2022/04/21 16:01:42;;;;;;;38.40;20.63;;;11.80;99.90;;;;;;8214908;28;20207;-67
2022/04/21 16:05:43;;;;;;;39.57;20.53;;;11.70;99.90;;;;;;8221975;28;20216;-66
2022/04/21 16:09:44;;;;;;;24.97;16.40;;;11.70;1.00;;;;;;8224993;28;20294;-67
2022/04/21 16:13:49;;;;;;;41.40;26.03;;;11.60;1.00;;;;;;8244585;28;20193;-69
2022/04/21 16:17:50;;;;;;;41.50;23.13;;;11.60;78.30;;;;;;8222772;28;20192;-67
2022/04/21 16:21:50;;;;;;;40.37;23.73;;;11.60;1.00;;;;;;8221238;28;20192;-68
2022/04/21 16:25:51;;;;;;;39.93;25.60;;;11.60;90.00;;;;;;8236359;28;20207;-67
2022/04/21 16:29:52;;;;;;;43.23;33.07;;;11.50;99.90;;;;;;8230622;28;20291;-68
2022/04/21 16:33:53;;;;;;;34.33;24.47;;;11.50;99.90;;;;;;8219048;28;20189;-68
2022/04/21 16:37:54;;;;;;;52.07;32.10;;;11.50;99.90;;;;;;8237783;28;20196;-67
2022/04/21 16:41:55;;;;;;;48.07;29.50;;;11.40;99.90;;;;;;8221107;28;20193;-68
2022/04/21 16:45:56;;;;;;;52.13;32.27;;;11.30;1.00;;;;;;8235874;28;20208;-68
2022/04/21 16:49:57;;;;;;;66.87;38.87;;;11.10;99.90;;;;;;8220582;28;20279;-68
2022/04/21 16:53:58;;;;;;;61.40;36.97;;;11.10;1.00;;;;;;8236847;28;20254;-68
2022/04/21 16:57:58;;;;;;;41.00;27.17;;;11.00;99.90;;;;;;8236449;28;20199;-68
2022/04/21 17:06:18;;;;;;;52.13;32.03;;;10.90;1.00;;;;;;8217877;28;20265;-68
2022/04/21 17:10:19;;;;;;;56.13;33.67;;;10.80;1.00;;;;;;8233857;28;20199;-68
2022/04/21 17:14:20;;;;;;;81.87;53.60;;;10.70;1.00;;;;;;8233702;28;20195;-68
2022/04/21 17:18:21;;;;;;;48.30;30.03;;;10.60;99.90;;;;;;8235414;28;20195;-68
2022/04/21 17:22:22;;;;;;;105.50;61.13;;;10.50;99.90;;;;;;8219811;28;20192;-68
2022/04/21 17:26:22;;;;;;;66.70;37.83;;;10.50;1.00;;;;;;8233373;28;20344;-69
2022/04/21 17:30:23;;;;;;;65.13;35.00;;;10.40;1.00;;;;;;8234727;28;20532;-68
2022/04/21 17:34:24;;;;;;;90.57;44.20;;;10.30;92.10;;;;;;8234337;28;20245;-68
2022/04/21 17:38:25;;;;;;;55.27;30.40;;;10.20;99.90;;;;;;8218455;28;20296;-68
2022/04/21 17:42:26;;;;;;;58.37;33.97;;;10.10;99.90;;;;;;8232842;28;20190;-68
2022/04/21 17:46:27;;;;;;;67.07;39.43;;;10.00;99.90;;;;;;8233421;28;20218;-68
2022/04/21 17:50:29;;;;;;;72.73;41.13;;;9.90;99.90;;;;;;8225814;28;20194;-67
2022/04/21 17:54:30;;;;;;;59.97;35.97;;;9.80;99.90;;;;;;8218938;28;20213;-69
2022/04/21 17:58:32;;;;;;;96.93;45.80;;;9.80;99.90;;;;;;8217526;28;20220;-69
2022/04/21 18:02:33;;;;;;;93.77;47.03;;;9.70;99.90;;;;;;8217305;28;20194;-69
2022/04/21 18:06:34;;;;;;;74.87;42.90;;;9.60;99.90;;;;;;8232638;28;20224;-69
2022/04/21 18:10:35;;;;;;;60.10;37.97;;;9.50;99.90;;;;;;8235048;28;20188;-68
2022/04/21 18:14:37;;;;;;;91.20;52.40;;;9.50;99.90;;;;;;8232507;28;20278;-68
2022/04/21 18:18:38;;;;;;;100.10;56.07;;;9.50;99.90;;;;;;8217801;28;20196;-68
2022/04/21 18:22:39;;;;;;;86.77;53.17;;;9.40;99.90;;;;;;8224242;28;20212;-68
2022/04/21 18:26:39;;;;;;;83.50;52.23;;;9.40;99.90;;;;;;8231860;28;20244;-69
2022/04/21 18:30:40;;;;;;;56.97;39.33;;;9.30;99.90;;;;;;8232809;28;20202;-68
2022/04/21 18:34:41;;;;;;;72.17;46.13;;;9.30;99.90;;;;;;8232035;28;20605;-68
2022/04/21 18:38:42;;;;;;;65.03;43.03;;;9.30;99.90;;;;;;8231772;28;20259;-68
2022/04/21 18:42:44;;;;;;;63.43;42.20;;;9.20;99.90;;;;;;8220459;28;20193;-68
2022/04/21 18:46:45;;;;;;;68.77;46.53;;;9.20;99.90;;;;;;8228031;28;20310;-68
2022/04/21 18:50:46;;;;;;;70.53;45.50;;;9.20;99.90;;;;;;8230252;28;20184;-68
2022/04/21 18:54:49;;;;;;;69.60;46.23;;;9.10;99.90;;;;;;8212805;28;20464;-68
2022/04/21 18:58:50;;;;;;;67.57;44.60;;;9.10;99.90;;;;;;8214390;28;20197;-68
2022/04/21 19:02:51;;;;;;;53.00;34.47;;;9.00;99.90;;;;;;8230260;28;20189;-68
2022/04/21 19:06:53;;;;;;;38.93;25.87;;;9.00;99.90;;;;;;8230543;28;20212;-69
2022/04/21 19:10:54;;;;;;;37.93;24.40;;;8.90;99.90;;;;;;8234857;28;20197;-68
2022/04/21 19:14:55;;;;;;;34.53;23.30;;;8.90;99.90;;;;;;8221010;28;20192;-69
2022/04/21 19:18:55;;;;;;;34.47;22.73;;;8.80;99.90;;;;;;8230614;28;20196;-69
2022/04/21 19:22:56;;;;;;;41.30;29.57;;;8.80;99.90;;;;;;8230679;28;20188;-68
2022/04/21 19:27:00;;;;;;;39.57;25.83;;;8.80;99.90;;;;;;8215087;28;20215;-69
2022/04/21 19:31:04;;;;;;;38.30;25.10;;;8.80;99.90;;;;;;8217655;28;20196;-69
2022/04/21 19:35:05;;;;;;;40.07;29.23;;;8.80;99.90;;;;;;8214285;28;20670;-69
2022/04/21 19:39:09;;;;;;;51.77;33.57;;;8.70;99.90;;;;;;8230362;28;20307;-69
2022/04/21 19:43:10;;;;;;;38.47;27.70;;;8.70;99.90;;;;;;8236702;28;20192;-68
2022/04/21 19:47:11;;;;;;;35.53;24.20;;;8.70;99.90;;;;;;8235074;28;20259;-69
2022/04/21 19:51:12;;;;;;;34.70;23.70;;;8.70;99.90;;;;;;8222033;28;20200;-68
2022/04/21 19:55:13;;;;;;;34.67;23.27;;;8.60;99.90;;;;;;8219682;28;20470;-68
2022/04/21 19:59:15;;;;;;;32.03;21.43;;;8.60;99.90;;;;;;8220448;28;20237;-69
2022/04/21 20:03:16;;;;;;;30.40;19.80;;;8.60;99.90;;;;;;8219815;28;20271;-69
2022/04/21 20:11:36;;;;;;;31.87;19.90;;;8.50;99.90;;;;;;8219211;28;20196;-69
2022/04/21 20:15:37;;;;;;;34.67;21.43;;;8.50;99.90;;;;;;8218155;28;20291;-69
2022/04/21 20:23:57;;;;;;;30.47;19.67;;;8.50;99.90;;;;;;8219327;28;20286;-69
2022/04/21 20:28:01;;;;;;;33.73;20.70;;;8.50;99.90;;;;;;8233915;28;20331;-68
2022/04/21 20:32:02;;;;;;;30.43;19.33;;;8.50;99.90;;;;;;8220799;28;20190;-69
2022/04/21 20:36:03;;;;;;;31.90;19.87;;;8.50;99.90;;;;;;8212908;28;20196;-69
2022/04/21 20:40:04;;;;;;;30.13;20.00;;;8.50;99.90;;;;;;8238127;28;20268;-68
2022/04/21 20:44:06;;;;;;;28.23;18.33;;;8.50;99.90;;;;;;8234251;28;20248;-69
2022/04/21 20:48:10;;;;;;;28.70;19.13;;;8.50;99.90;;;;;;8221350;28;20213;-68
2022/04/21 20:52:12;;;;;;;29.37;18.97;;;8.50;99.90;;;;;;8222542;28;20180;-69
2022/04/21 20:56:12;;;;;;;32.80;19.63;;;8.50;99.90;;;;;;8219414;28;20185;-69
2022/04/21 21:00:14;;;;;;;25.83;16.63;;;8.50;99.90;;;;;;8218305;28;20196;-69
2022/04/21 21:04:15;;;;;;;27.50;18.50;;;8.50;99.90;;;;;;8230700;28;20200;-69
2022/04/21 21:08:16;;;;;;;29.53;18.57;;;8.50;99.90;;;;;;8213836;28;20212;-69
2022/04/21 21:12:18;;;;;;;23.77;17.47;;;8.50;99.90;;;;;;8233554;28;20196;-69
2022/04/21 21:16:19;;;;;;;26.03;16.73;;;8.40;99.90;;;;;;8236099;28;20201;-69
2022/04/21 21:20:20;;;;;;;24.10;17.07;;;8.40;99.90;;;;;;8220777;28;20254;-69
2022/04/21 21:24:21;;;;;;;25.43;17.03;;;8.40;99.90;;;;;;8220475;28;20196;-69
2022/04/21 21:28:22;;;;;;;29.77;18.17;;;8.40;99.90;;;;;;8220594;28;20311;-68
2022/04/21 21:32:23;;;;;;;27.17;18.00;;;8.40;99.90;;;;;;8235072;28;20184;-69
2022/04/21 21:36:24;;;;;;;49.90;31.20;;;8.50;99.90;;;;;;8229175;28;20542;-69
2022/04/21 21:40:24;;;;;;;45.00;29.63;;;8.40;99.90;;;;;;8217529;28;20220;-69
2022/04/21 21:44:26;;;;;;;50.53;30.70;;;8.50;99.90;;;;;;8234355;28;20288;-69
2022/04/21 21:52:54;;;;;;;38.77;23.23;;;8.50;99.90;;;;;;8217365;28;20199;-69
2022/04/21 21:56:55;;;;;;;28.77;18.73;;;8.40;99.90;;;;;;8217680;28;20196;-70
2022/04/21 22:00:58;;;;;;;22.63;15.43;;;8.40;99.90;;;;;;8232156;28;20226;-69
2022/04/21 22:04:59;;;;;;;21.80;15.03;;;8.40;99.90;;;;;;8233002;28;20196;-69
2022/04/21 22:09:01;;;;;;;19.50;14.60;;;8.40;99.90;;;;;;8235121;28;20248;-69
2022/04/21 22:13:03;;;;;;;21.47;14.63;;;8.40;99.90;;;;;;8219155;28;20192;-69
2022/04/21 22:17:04;;;;;;;26.43;16.40;;;8.40;99.90;;;;;;8219341;28;20203;-69
2022/04/21 22:21:07;;;;;;;35.80;22.40;;;8.40;99.90;;;;;;8232319;28;20192;-69
2022/04/21 22:25:08;;;;;;;49.37;30.27;;;8.40;99.90;;;;;;8234262;28;20208;-69
2022/04/21 22:29:09;;;;;;;38.97;24.77;;;8.40;99.90;;;;;;8218880;28;20184;-69
2022/04/21 22:33:10;;;;;;;29.47;19.73;;;8.40;99.90;;;;;;8216887;28;20195;-69
2022/04/21 22:37:11;;;;;;;24.60;17.60;;;8.40;99.90;;;;;;8231692;28;20197;-69
2022/04/21 22:41:13;;;;;;;22.17;15.40;;;8.30;99.90;;;;;;8216289;28;20204;-69
2022/04/21 22:45:15;;;;;;;26.17;17.00;;;8.40;99.90;;;;;;8232405;28;20216;-69
2022/04/21 22:49:16;;;;;;;24.23;17.47;;;8.30;99.90;;;;;;8231825;28;20184;-69